Terminal Aerodrome Forecast
Issued by NWS Tulsa, OK

Home | Current Version | Previous Version | Text Only | Print | Product List | Glossary On
Versions: 1 2 3 4 5 6 7 8 9 10 11 12 13 14 15 16 17
000
FTUS44 KTSA 150500
TAFFSM
TAF
KFSM 150520Z 1506/1606 07003KT P6SM VCSH SCT040 BKN100
     FM151600 08005KT P6SM BKN100
     FM151900 22007KT P6SM SCT050 BKN200
     FM160000 VRB03KT P6SM BKN250=

USA.gov is the U.S. government's official web portal to all federal, state and local government web resources and services.